createdAt,value
2018-09-24T00:00:15.432Z,1.40
2018-09-24T00:02:44.547Z,1.50
2018-09-24T00:05:14.096Z,1.73
2018-09-24T00:07:43.298Z,1.60
2018-09-24T00:10:12.272Z,1.40
2018-09-24T00:12:41.143Z,1.40
2018-09-24T00:15:10.368Z,1.43
2018-09-24T00:17:39.879Z,1.60
2018-09-24T00:20:08.763Z,2.00
2018-09-24T00:22:37.671Z,1.70
2018-09-24T00:25:06.634Z,1.73
2018-09-24T00:27:35.548Z,1.43
2018-09-24T00:30:04.467Z,1.83
2018-09-24T00:32:33.584Z,1.90
2018-09-24T00:35:02.717Z,2.00
2018-09-24T00:37:31.823Z,1.70
2018-09-24T00:40:00.949Z,2.43
2018-09-24T00:42:29.903Z,1.90
2018-09-24T00:44:59.022Z,2.00
2018-09-24T00:47:27.936Z,1.80
2018-09-24T00:49:56.888Z,2.00
2018-09-24T00:52:25.815Z,1.80
2018-09-24T00:54:59.919Z,1.87
2018-09-24T00:57:29.038Z,2.00
2018-09-24T00:59:57.960Z,2.23
2018-09-24T01:02:27.087Z,2.27
2018-09-24T01:04:56.020Z,2.10
2018-09-24T01:07:27.950Z,1.60
2018-09-24T01:09:59.013Z,1.50
2018-09-24T01:12:31.321Z,1.80
2018-09-24T01:15:02.055Z,2.70
2018-09-24T01:17:33.781Z,2.00
2018-09-24T01:20:05.716Z,1.67
2018-09-24T01:22:38.031Z,2.00
2018-09-24T01:25:10.951Z,1.50
2018-09-24T01:27:42.766Z,1.70
2018-09-24T01:30:14.034Z,1.80
2018-09-24T01:32:46.286Z,1.70
2018-09-24T01:35:18.976Z,1.70
2018-09-24T01:37:50.903Z,1.60
2018-09-24T01:40:23.725Z,1.60
2018-09-24T01:42:56.069Z,1.60
2018-09-24T01:45:28.908Z,1.60
2018-09-24T01:47:58.511Z,1.80
2018-09-24T01:50:27.448Z,1.60
2018-09-24T01:53:01.561Z,1.53
2018-09-24T01:55:30.792Z,1.60
2018-09-24T01:57:59.956Z,1.23
2018-09-24T02:00:29.806Z,1.90
2018-09-24T02:02:58.700Z,1.50
2018-09-24T02:05:27.637Z,1.80
2018-09-24T02:07:56.532Z,1.70
2018-09-24T02:10:26.393Z,1.53
2018-09-24T02:12:56.543Z,1.60
2018-09-24T02:15:30.490Z,1.70
2018-09-24T02:17:59.719Z,1.60
2018-09-24T02:20:29.445Z,1.47
2018-09-24T02:22:58.341Z,1.47
2018-09-24T02:25:27.268Z,1.40
2018-09-24T02:27:56.153Z,1.60
2018-09-24T02:30:25.040Z,1.23
2018-09-24T02:32:53.944Z,1.30
2018-09-24T02:35:22.825Z,1.40
2018-09-24T02:37:51.719Z,1.20
2018-09-24T02:40:21.906Z,1.53
2018-09-24T02:42:50.952Z,1.60
2018-09-24T02:45:20.034Z,1.10
2018-09-24T02:47:48.933Z,1.57
2018-09-24T02:50:17.839Z,1.50
2018-09-24T02:52:46.800Z,1.40
2018-09-24T02:55:17.215Z,1.30
2018-09-24T02:57:46.320Z,1.33
2018-09-24T03:00:21.524Z,1.50
2018-09-24T03:02:50.871Z,1.23
2018-09-24T03:05:19.783Z,1.20
2018-09-24T03:07:48.651Z,1.30
2018-09-24T03:10:17.603Z,1.30
2018-09-24T03:12:52.819Z,1.63
2018-09-24T03:15:22.352Z,1.23
2018-09-24T03:17:51.258Z,1.30
2018-09-24T03:20:20.146Z,1.30
2018-09-24T03:22:49.343Z,1.70
2018-09-24T03:25:19.145Z,1.40
2018-09-24T03:27:48.310Z,1.00
2018-09-24T03:30:17.238Z,1.20
2018-09-24T03:32:46.123Z,1.30
2018-09-24T03:35:15.094Z,1.40
2018-09-24T03:37:44.506Z,1.30
2018-09-24T03:40:13.667Z,1.03
2018-09-24T03:42:42.800Z,1.33
2018-09-24T03:45:11.724Z,1.40
2018-09-24T03:47:40.607Z,1.27
2018-09-24T03:50:09.815Z,1.13
2018-09-24T03:52:38.936Z,1.20
2018-09-24T03:55:07.818Z,1.20
2018-09-24T03:57:36.830Z,1.57
2018-09-24T04:00:05.781Z,1.20
2018-09-24T04:02:35.191Z,1.47
2018-09-24T04:05:09.544Z,1.10
2018-09-24T04:07:43.831Z,1.10
2018-09-24T04:10:18.311Z,1.47
2018-09-24T04:12:52.739Z,1.43
2018-09-24T04:15:33.816Z,1.00
2018-09-24T04:18:08.142Z,1.30
2018-09-24T04:20:42.582Z,1.10
2018-09-24T04:23:16.858Z,1.07
2018-09-24T04:25:50.986Z,2.00
2018-09-24T04:28:25.365Z,1.50
2018-09-24T04:30:59.689Z,1.27
2018-09-24T04:33:34.436Z,1.20
2018-09-24T04:36:09.372Z,1.10
2018-09-24T04:38:43.712Z,1.20
2018-09-24T04:41:18.229Z,1.10
2018-09-24T04:43:52.365Z,1.17
2018-09-24T04:46:26.672Z,1.60
2018-09-24T04:49:01.569Z,1.40
2018-09-24T04:51:36.199Z,1.50
2018-09-24T04:54:10.518Z,1.90
2018-09-24T04:56:45.139Z,2.07
2018-09-24T04:59:19.544Z,2.40
2018-09-24T05:01:53.980Z,1.40
2018-09-24T05:04:28.351Z,1.73
2018-09-24T05:07:02.751Z,1.80
2018-09-24T05:09:37.190Z,2.10
2018-09-24T05:12:11.872Z,1.77
2018-09-24T05:14:46.385Z,2.23
2018-09-24T05:17:20.747Z,1.50
2018-09-24T05:19:55.006Z,1.87
2018-09-24T05:22:29.448Z,1.47
2018-09-24T05:25:04.060Z,1.50
2018-09-24T05:27:38.343Z,1.57
2018-09-24T05:30:12.732Z,1.50
2018-09-24T05:32:47.124Z,1.40
2018-09-24T05:35:21.304Z,1.40
2018-09-24T05:37:56.088Z,1.43
2018-09-24T05:40:30.352Z,1.43
2018-09-24T05:43:04.634Z,1.80
2018-09-24T05:45:39.280Z,1.70
2018-09-24T05:48:13.734Z,1.60
2018-09-24T05:50:48.152Z,1.20
2018-09-24T05:53:22.548Z,1.57
2018-09-24T05:55:56.961Z,1.67
2018-09-24T05:58:31.403Z,1.50
2018-09-24T06:01:05.740Z,1.57
2018-09-24T06:03:40.299Z,1.40
2018-09-24T06:06:14.630Z,1.93
2018-09-24T06:08:48.945Z,2.33
2018-09-24T06:11:23.288Z,1.90
2018-09-24T06:13:57.489Z,1.73
2018-09-24T06:16:31.841Z,1.33
2018-09-24T06:19:06.349Z,1.47
2018-09-24T06:21:40.777Z,1.40
2018-09-24T06:24:15.301Z,1.60
2018-09-24T06:26:50.152Z,1.20
2018-09-24T06:29:24.799Z,1.10
2018-09-24T06:31:59.099Z,1.37
2018-09-24T06:34:33.472Z,1.40
2018-09-24T06:37:07.753Z,1.20
2018-09-24T06:46:52.749Z,1.57
2018-09-24T06:49:27.166Z,1.30
2018-09-24T06:52:01.488Z,1.30
2018-09-24T06:54:35.704Z,1.30
2018-09-24T06:57:10.095Z,1.40
2018-09-24T06:59:44.635Z,1.30
2018-09-24T07:02:19.044Z,1.50
2018-09-24T07:04:53.528Z,1.40
2018-09-24T07:07:27.899Z,1.80
2018-09-24T07:10:02.090Z,1.53
2018-09-24T07:12:36.348Z,1.47
2018-09-24T07:15:12.134Z,1.40
2018-09-24T07:17:48.895Z,1.20
2018-09-24T07:20:26.512Z,1.67
2018-09-24T07:23:03.129Z,1.10
2018-09-24T07:25:39.539Z,1.40
2018-09-24T07:28:14.630Z,1.40
2018-09-24T07:30:49.042Z,2.60
2018-09-24T07:33:23.604Z,1.60
2018-09-24T07:35:58.996Z,2.00
2018-09-24T07:38:34.048Z,2.10
2018-09-24T07:41:08.544Z,1.80
2018-09-24T07:43:44.222Z,1.90
2018-09-24T07:46:18.911Z,1.50
2018-09-24T07:48:53.240Z,1.60
2018-09-24T07:51:27.544Z,1.87
2018-09-24T07:54:02.365Z,1.70
2018-09-24T07:56:37.452Z,1.73
2018-09-24T07:59:11.857Z,1.73
2018-09-24T08:01:46.199Z,1.20
2018-09-24T08:04:21.730Z,1.40
2018-09-24T08:06:56.147Z,1.73
2018-09-24T08:09:30.628Z,1.33
2018-09-24T08:12:05.207Z,1.53
2018-09-24T08:14:39.988Z,1.30
2018-09-24T08:17:15.256Z,1.50
2018-09-24T08:19:49.566Z,1.50
2018-09-24T08:22:23.943Z,1.20
2018-09-24T08:24:58.223Z,1.80
2018-09-24T08:27:32.701Z,1.50
2018-09-24T08:30:07.002Z,1.50
2018-09-24T08:32:41.410Z,1.47
2018-09-24T08:35:16.038Z,1.27
2018-09-24T08:37:50.267Z,1.57
2018-09-24T08:40:24.655Z,1.97
2018-09-24T08:42:59.369Z,2.20
2018-09-24T08:45:33.928Z,1.60
2018-09-24T08:48:08.498Z,1.50
2018-09-24T08:50:42.904Z,1.67
2018-09-24T08:53:17.254Z,1.57
2018-09-24T08:55:51.609Z,1.60
2018-09-24T08:58:26.492Z,1.30
2018-09-24T09:01:01.050Z,1.60
2018-09-24T09:03:37.287Z,1.77
2018-09-24T09:06:11.734Z,1.40
2018-09-24T09:08:46.661Z,1.57
2018-09-24T09:11:21.681Z,1.70
2018-09-24T09:13:56.500Z,1.63
2018-09-24T09:16:31.769Z,1.40
2018-09-24T09:19:06.124Z,1.50
2018-09-24T09:21:40.781Z,1.60
2018-09-24T09:24:15.151Z,2.50
2018-09-24T09:26:49.559Z,2.17
2018-09-24T09:29:24.208Z,1.93
2018-09-24T09:31:58.645Z,1.50
2018-09-24T09:34:33.663Z,1.57
2018-09-24T09:37:07.903Z,2.03
2018-09-24T09:39:42.430Z,1.90
2018-09-24T09:42:16.802Z,1.40
2018-09-24T09:44:51.263Z,1.57
2018-09-24T09:47:25.809Z,1.83
2018-09-24T09:50:00.294Z,1.93
2018-09-24T09:52:34.608Z,1.93
2018-09-24T09:55:09.168Z,1.30
2018-09-24T09:57:43.722Z,1.17
2018-09-24T10:00:18.187Z,1.60
2018-09-24T10:02:52.624Z,1.37
2018-09-24T10:05:27.250Z,1.40
2018-09-24T10:08:08.307Z,2.00
2018-09-24T10:10:42.966Z,3.23
2018-09-24T10:13:17.269Z,3.23
2018-09-24T10:15:51.677Z,2.60
2018-09-24T10:18:25.858Z,2.20
2018-09-24T10:21:00.241Z,1.83
2018-09-24T10:23:34.873Z,1.97
2018-09-24T10:26:09.200Z,2.10
2018-09-24T10:28:43.715Z,1.57
2018-09-24T10:31:18.162Z,1.60
2018-09-24T10:33:52.525Z,1.97
2018-09-24T10:36:27.200Z,1.70
2018-09-24T10:39:01.605Z,1.47
2018-09-24T10:41:36.357Z,2.20
2018-09-24T10:44:10.699Z,1.90
2018-09-24T10:46:45.124Z,2.20
2018-09-24T10:49:19.307Z,1.80
2018-09-24T10:51:53.740Z,1.80
2018-09-24T10:54:28.108Z,1.70
2018-09-24T10:57:02.449Z,2.47
2018-09-24T10:59:37.289Z,2.07
2018-09-24T11:02:11.867Z,1.50
2018-09-24T11:04:46.255Z,1.80
2018-09-24T11:07:20.660Z,1.47
2018-09-24T11:09:55.225Z,1.37
2018-09-24T11:12:29.806Z,1.30
2018-09-24T11:15:04.695Z,1.73
2018-09-24T11:17:39.492Z,1.40
2018-09-24T11:20:14.555Z,1.50
2018-09-24T11:22:49.156Z,1.50
2018-09-24T11:25:23.592Z,1.70
2018-09-24T11:27:57.890Z,1.20
2018-09-24T11:30:32.023Z,1.30
2018-09-24T11:33:06.467Z,1.50
2018-09-24T11:35:40.781Z,1.33
2018-09-24T11:38:15.068Z,1.20
2018-09-24T11:40:50.399Z,1.40
2018-09-24T11:43:24.743Z,1.10
2018-09-24T11:45:59.069Z,1.10
2018-09-24T11:48:33.488Z,1.27
2018-09-24T11:51:07.931Z,1.00
2018-09-24T11:53:42.399Z,1.30
2018-09-24T11:56:16.892Z,1.53
2018-09-24T11:58:51.351Z,1.20
2018-09-24T12:01:25.682Z,2.03
2018-09-24T12:04:00.425Z,1.40
2018-09-24T12:06:35.213Z,1.27
2018-09-24T12:09:11.128Z,2.60
2018-09-24T12:11:45.791Z,1.20
2018-09-24T12:14:20.272Z,1.20
2018-09-24T12:16:54.835Z,1.90
2018-09-24T12:19:29.502Z,1.43
2018-09-24T12:22:03.832Z,1.17
2018-09-24T12:24:38.285Z,1.40
2018-09-24T12:27:13.378Z,1.03
2018-09-24T12:29:47.924Z,1.17
2018-09-24T12:32:22.324Z,1.07
2018-09-24T12:34:56.829Z,1.20
2018-09-24T12:37:31.608Z,1.70
2018-09-24T12:40:05.767Z,1.20
2018-09-24T12:42:40.316Z,1.37
2018-09-24T12:45:14.804Z,1.43
2018-09-24T12:47:49.674Z,1.20
2018-09-24T12:50:24.213Z,1.00
2018-09-24T12:52:58.533Z,1.33
2018-09-24T12:55:33.006Z,1.23
2018-09-24T12:58:07.328Z,1.17
2018-09-24T13:00:41.578Z,1.27
2018-09-24T13:03:16.827Z,1.50
2018-09-24T13:05:51.228Z,1.50
2018-09-24T13:08:27.070Z,1.20
2018-09-24T13:11:01.592Z,1.30
2018-09-24T13:13:36.249Z,1.30
2018-09-24T13:16:10.523Z,1.30
2018-09-24T13:18:44.938Z,1.10
2018-09-24T13:21:19.147Z,1.20
2018-09-24T13:23:53.777Z,1.00
2018-09-24T13:26:27.934Z,1.20
2018-09-24T13:29:02.367Z,1.10
2018-09-24T13:31:37.035Z,1.17
2018-09-24T13:34:11.358Z,1.33
2018-09-24T13:36:45.733Z,8.47
2018-09-24T13:39:20.428Z,36.20
2018-09-24T13:41:54.630Z,52.77
2018-09-24T13:44:29.327Z,30.37
2018-09-24T13:47:03.906Z,18.60
2018-09-24T13:49:38.626Z,14.20
2018-09-24T13:52:12.900Z,11.90
2018-09-24T13:54:47.286Z,13.77
2018-09-24T13:57:21.480Z,14.10
2018-09-24T13:59:55.823Z,9.70
2018-09-24T14:02:30.499Z,8.03
2018-09-24T14:05:04.834Z,7.73
2018-09-24T14:07:39.352Z,6.93
2018-09-24T14:10:13.545Z,6.10
2018-09-24T14:12:48.011Z,7.27
2018-09-24T14:15:22.366Z,6.70
2018-09-24T14:17:57.141Z,6.57
2018-09-24T14:20:31.654Z,5.60
2018-09-24T14:23:06.008Z,5.77
2018-09-24T14:25:40.360Z,6.20
2018-09-24T14:28:15.041Z,5.63
2018-09-24T14:30:49.420Z,3.60
2018-09-24T14:33:23.816Z,4.47
2018-09-24T14:35:58.419Z,4.77
2018-09-24T14:38:33.056Z,4.77
2018-09-24T14:41:07.444Z,4.10
2018-09-24T14:43:41.863Z,4.93
2018-09-24T14:51:13.402Z,3.90
2018-09-24T14:53:47.849Z,3.50
2018-09-24T14:56:22.149Z,3.43
2018-09-24T14:58:56.622Z,3.10
2018-09-24T15:01:31.147Z,3.63
2018-09-24T15:04:05.767Z,2.57
2018-09-24T15:06:40.059Z,2.90
2018-09-24T15:09:14.205Z,3.20
2018-09-24T15:11:48.783Z,2.83
2018-09-24T15:14:23.182Z,2.57
2018-09-24T15:16:57.628Z,3.00
2018-09-24T15:19:32.012Z,2.70
2018-09-24T15:22:07.552Z,2.17
2018-09-24T15:24:42.111Z,2.03
2018-09-24T15:27:16.433Z,2.27
2018-09-24T15:29:50.696Z,2.50
2018-09-24T15:32:25.315Z,2.40
2018-09-24T15:34:59.792Z,2.30
2018-09-24T15:37:34.043Z,2.10
2018-09-24T15:40:08.423Z,2.40
2018-09-24T15:42:42.775Z,2.23
2018-09-24T15:45:17.008Z,2.17
2018-09-24T15:47:51.432Z,2.07
2018-09-24T15:50:26.190Z,2.10
2018-09-24T15:53:00.591Z,2.10
2018-09-24T15:55:35.254Z,2.00
2018-09-24T15:58:09.677Z,2.43
2018-09-24T16:00:44.164Z,2.00
2018-09-24T16:03:18.660Z,2.40
2018-09-24T16:05:53.233Z,2.03
2018-09-24T16:08:27.592Z,2.10
2018-09-24T16:11:01.859Z,1.87
2018-09-24T16:13:36.128Z,2.13
2018-09-24T16:16:10.468Z,1.67
2018-09-24T16:18:44.884Z,1.80
2018-09-24T16:21:19.342Z,1.80
2018-09-24T16:23:53.819Z,1.53
2018-09-24T16:26:28.507Z,2.30
2018-09-24T16:29:03.212Z,1.93
2018-09-24T16:31:37.703Z,2.00
2018-09-24T16:34:12.039Z,1.63
2018-09-24T16:36:46.434Z,1.70
2018-09-24T16:39:20.906Z,4.93
2018-09-24T16:41:55.547Z,1.53
2018-09-24T16:44:29.936Z,1.80
2018-09-24T16:47:04.452Z,2.00
2018-09-24T16:49:39.095Z,1.90
2018-09-24T16:52:13.788Z,1.60
2018-09-24T16:54:49.144Z,1.50
2018-09-24T16:57:23.466Z,1.60
2018-09-24T16:59:57.971Z,1.27
2018-09-24T17:02:33.519Z,1.20
2018-09-24T17:05:07.802Z,1.30
2018-09-24T17:07:42.164Z,1.80
2018-09-24T17:10:16.593Z,1.70
2018-09-24T17:12:51.571Z,1.80
2018-09-24T17:15:25.854Z,3.07
2018-09-24T17:18:00.359Z,1.63
2018-09-24T17:20:34.819Z,2.10
2018-09-24T17:23:09.155Z,1.57
2018-09-24T17:25:43.721Z,2.00
2018-09-24T17:28:18.103Z,1.70
2018-09-24T17:30:52.529Z,1.80
2018-09-24T17:33:26.843Z,1.80
2018-09-24T17:36:01.289Z,1.50
2018-09-24T17:38:35.691Z,1.60
2018-09-24T17:41:10.069Z,1.30
2018-09-24T17:43:44.383Z,1.30
2018-09-24T17:46:19.160Z,1.40
2018-09-24T17:48:53.486Z,1.50
2018-09-24T17:51:27.982Z,1.00
2018-09-24T17:54:02.327Z,1.30
2018-09-24T17:56:37.098Z,1.40
2018-09-24T17:59:11.892Z,1.30
2018-09-24T18:01:46.365Z,1.10
2018-09-24T18:04:20.708Z,1.40
2018-09-24T18:06:55.105Z,1.10
2018-09-24T18:09:29.335Z,1.20
2018-09-24T18:12:03.727Z,1.57
2018-09-24T18:14:38.094Z,1.97
2018-09-24T18:17:12.387Z,1.37
2018-09-24T18:19:47.492Z,1.37
2018-09-24T18:22:22.039Z,1.33
2018-09-24T18:24:56.254Z,1.17
2018-09-24T18:27:30.469Z,1.17
2018-09-24T18:30:04.925Z,1.40
2018-09-24T18:32:39.332Z,1.27
2018-09-24T18:35:13.626Z,1.63
2018-09-24T18:37:48.041Z,1.20
2018-09-24T18:40:22.373Z,1.30
2018-09-24T18:42:56.813Z,1.30
2018-09-24T18:45:31.343Z,1.00
2018-09-24T18:48:06.148Z,1.30
2018-09-24T18:50:40.459Z,1.17
2018-09-24T18:53:14.943Z,1.30
2018-09-24T18:55:49.060Z,0.90
2018-09-24T18:58:23.364Z,1.30
2018-09-24T19:00:57.732Z,1.10
2018-09-24T19:03:31.900Z,1.33
2018-09-24T19:06:06.254Z,1.20
2018-09-24T19:08:40.579Z,1.03
2018-09-24T19:11:15.308Z,1.27
2018-09-24T19:13:49.772Z,1.10
2018-09-24T19:16:24.668Z,1.10
2018-09-24T19:18:59.060Z,1.43
2018-09-24T19:21:33.497Z,1.10
2018-09-24T19:24:07.711Z,1.27
2018-09-24T19:26:41.891Z,1.20
2018-09-24T19:29:16.503Z,1.20
2018-09-24T19:31:50.988Z,1.10
2018-09-24T19:34:25.491Z,1.03
2018-09-24T19:37:00.172Z,1.10
2018-09-24T19:39:34.703Z,1.00
2018-09-24T19:42:08.954Z,1.40
2018-09-24T19:44:43.414Z,1.60
2018-09-24T19:47:17.978Z,1.60
2018-09-24T19:49:52.263Z,2.07
2018-09-24T19:52:26.612Z,1.60
2018-09-24T19:55:01.138Z,1.50
2018-09-24T19:57:35.377Z,1.67
2018-09-24T20:00:09.742Z,1.43
2018-09-24T20:02:44.091Z,1.80
2018-09-24T20:05:18.528Z,1.50
2018-09-24T20:07:53.440Z,1.53
2018-09-24T20:10:28.171Z,1.30
2018-09-24T20:13:02.795Z,2.07
2018-09-24T20:15:37.344Z,1.47
2018-09-24T20:18:11.879Z,1.90
2018-09-24T20:20:46.303Z,1.33
2018-09-24T20:23:22.046Z,1.40
2018-09-24T20:25:57.163Z,1.40
2018-09-24T20:28:31.743Z,1.30
2018-09-24T20:31:06.038Z,1.13
2018-09-24T20:33:40.372Z,1.23
2018-09-24T20:36:15.295Z,1.40
2018-09-24T20:38:50.458Z,1.50
2018-09-24T20:41:25.067Z,1.33
2018-09-24T20:44:00.293Z,1.67
2018-09-24T20:46:35.057Z,1.10
2018-09-24T20:49:11.073Z,1.40
2018-09-24T20:51:45.551Z,1.67
2018-09-24T20:54:20.282Z,1.40
2018-09-24T20:56:54.850Z,1.20
2018-09-24T20:59:29.611Z,1.37
2018-09-24T21:02:04.042Z,1.20
2018-09-24T21:04:38.572Z,1.20
2018-09-24T21:07:12.834Z,1.17
2018-09-24T21:09:47.215Z,1.20
2018-09-24T21:12:22.448Z,1.10
2018-09-24T21:14:56.905Z,1.10
2018-09-24T21:17:31.371Z,1.10
2018-09-24T21:20:05.906Z,1.30
2018-09-24T21:22:40.343Z,1.17
2018-09-24T21:25:14.810Z,1.00
2018-09-24T21:27:49.241Z,1.10
2018-09-24T21:30:23.923Z,1.10
2018-09-24T21:32:58.650Z,1.17
2018-09-24T21:35:33.244Z,1.03
2018-09-24T21:38:07.626Z,1.20
2018-09-24T21:40:41.978Z,1.10
2018-09-24T21:43:16.557Z,1.17
2018-09-24T21:45:51.414Z,1.10
2018-09-24T21:48:26.038Z,1.27
2018-09-24T21:51:00.344Z,1.00
2018-09-24T21:53:34.630Z,1.03
2018-09-24T21:56:08.936Z,1.03
2018-09-24T21:58:43.437Z,0.90
2018-09-24T22:01:17.967Z,1.50
2018-09-24T22:03:53.247Z,1.00
2018-09-24T22:06:27.792Z,1.30
2018-09-24T22:09:02.347Z,1.10
2018-09-24T22:11:36.907Z,1.20
2018-09-24T22:14:11.332Z,0.87
2018-09-24T22:16:45.543Z,1.20
2018-09-24T22:19:19.972Z,1.10
2018-09-24T22:21:54.527Z,1.10
2018-09-24T22:24:28.748Z,1.20
2018-09-24T22:27:03.127Z,1.30
2018-09-24T22:29:37.382Z,1.07
2018-09-24T22:32:11.743Z,1.17
2018-09-24T22:34:46.135Z,1.10
2018-09-24T22:37:20.389Z,1.00
2018-09-24T22:39:54.551Z,1.20
2018-09-24T22:42:28.844Z,1.00
2018-09-24T22:45:03.354Z,1.00
2018-09-24T22:54:46.066Z,1.00
2018-09-24T22:57:20.796Z,1.17
2018-09-24T22:59:55.135Z,1.00
2018-09-24T23:02:29.711Z,1.07
2018-09-24T23:05:04.167Z,1.60
2018-09-24T23:07:38.732Z,1.10
2018-09-24T23:10:13.158Z,0.90
2018-09-24T23:12:47.808Z,1.20
2018-09-24T23:15:22.909Z,0.97
2018-09-24T23:17:57.326Z,1.10
2018-09-24T23:20:31.683Z,1.10
2018-09-24T23:23:06.033Z,1.20
2018-09-24T23:25:40.307Z,1.13
2018-09-24T23:28:14.478Z,1.10
2018-09-24T23:30:48.978Z,1.00
2018-09-24T23:33:23.275Z,1.00
2018-09-24T23:35:57.532Z,1.23
2018-09-24T23:38:32.130Z,1.33
2018-09-24T23:41:06.588Z,1.20
2018-09-24T23:43:41.115Z,1.27
2018-09-24T23:46:15.319Z,1.00
2018-09-24T23:48:49.669Z,1.30
2018-09-24T23:51:23.898Z,1.03
2018-09-24T23:53:58.163Z,0.90
2018-09-24T23:56:32.740Z,1.20
2018-09-24T23:59:07.094Z,1.00
